createdAt,value
2018-07-22T00:01:53.179Z,101412.80
2018-07-22T00:04:27.768Z,101416.73
2018-07-22T00:06:56.962Z,101417.02
2018-07-22T00:09:26.050Z,101415.21
2018-07-22T00:11:55.236Z,101408.82
2018-07-22T00:14:24.531Z,101412.39
2018-07-22T00:16:53.593Z,101415.00
2018-07-22T00:19:24.551Z,101411.81
2018-07-22T00:21:53.660Z,101413.53
2018-07-22T00:24:22.768Z,101425.12
2018-07-22T00:26:51.900Z,101420.20
2018-07-22T00:29:21.329Z,101418.77
2018-07-22T00:31:50.424Z,101423.56
2018-07-22T00:34:19.654Z,101429.46
2018-07-22T00:36:48.782Z,101428.88
2018-07-22T00:39:17.856Z,101426.17
2018-07-22T00:41:46.944Z,101426.95
2018-07-22T00:44:16.038Z,101423.75
2018-07-22T00:46:45.145Z,101416.50
2018-07-22T00:49:14.241Z,101414.66
2018-07-22T00:51:43.346Z,101429.94
2018-07-22T00:54:12.463Z,101419.12
2018-07-22T00:56:41.548Z,101421.33
2018-07-22T00:59:10.623Z,101428.00
2018-07-22T01:01:39.692Z,101419.40
2018-07-22T01:04:09.294Z,101413.13
2018-07-22T01:06:38.432Z,101408.48
2018-07-22T01:09:09.134Z,101412.05
2018-07-22T01:11:38.228Z,101412.91
2018-07-22T01:14:07.806Z,101410.58
2018-07-22T01:16:37.015Z,101414.64
2018-07-22T01:19:06.616Z,101409.63
2018-07-22T01:21:35.756Z,101416.77
2018-07-22T01:24:04.862Z,101423.03
2018-07-22T01:26:33.948Z,101426.63
2018-07-22T01:29:03.192Z,101426.63
2018-07-22T01:31:32.344Z,101432.41
2018-07-22T01:34:01.534Z,101432.78
2018-07-22T01:36:30.855Z,101430.48
2018-07-22T01:38:59.950Z,101430.48
2018-07-22T01:41:29.078Z,101426.91
2018-07-22T01:43:58.236Z,101426.80
2018-07-22T01:46:27.357Z,101430.36
2018-07-22T01:48:56.518Z,101428.91
2018-07-22T01:51:25.594Z,101432.11
2018-07-22T01:53:54.722Z,101431.62
2018-07-22T01:56:24.016Z,101428.42
2018-07-22T01:58:53.082Z,101431.53
2018-07-22T02:01:22.210Z,101429.28
2018-07-22T02:03:51.363Z,101427.94
2018-07-22T02:06:20.416Z,101429.69
2018-07-22T02:08:49.487Z,101429.20
2018-07-22T02:11:19.176Z,101431.81
2018-07-22T02:13:48.297Z,101435.47
2018-07-22T02:16:17.820Z,101439.92
2018-07-22T02:18:47.007Z,101437.68
2018-07-22T02:21:16.144Z,101442.14
2018-07-22T02:23:50.926Z,101438.94
2018-07-22T02:26:24.859Z,101434.52
2018-07-22T02:28:53.944Z,101434.89
2018-07-22T02:31:23.021Z,101435.38
2018-07-22T02:33:52.086Z,101429.11
2018-07-22T02:36:21.162Z,101433.53
2018-07-22T02:38:50.349Z,101433.04
2018-07-22T02:41:19.438Z,101431.23
2018-07-22T02:43:48.543Z,101437.10
2018-07-22T02:46:17.984Z,101442.05
2018-07-22T02:48:47.609Z,101432.58
2018-07-22T02:51:16.691Z,101437.22
2018-07-22T02:53:45.864Z,101442.14
2018-07-22T02:56:14.976Z,101438.08
2018-07-22T02:58:44.075Z,101443.41
2018-07-22T03:01:13.232Z,101443.41
2018-07-22T03:03:42.390Z,101438.36
2018-07-22T03:06:11.536Z,101439.72
2018-07-22T03:08:40.638Z,101438.36
2018-07-22T03:11:09.724Z,101435.16
2018-07-22T03:13:38.820Z,101435.66
2018-07-22T03:16:08.596Z,101439.63
2018-07-22T03:18:37.686Z,101438.73
2018-07-22T03:21:07.089Z,101440.08
2018-07-22T03:23:36.189Z,101433.72
2018-07-22T03:26:05.478Z,101435.08
2018-07-22T03:28:34.618Z,101439.53
2018-07-22T03:31:03.805Z,101436.83
2018-07-22T03:33:32.884Z,101444.95
2018-07-22T03:36:02.117Z,101448.61
2018-07-22T03:38:31.210Z,101443.10
2018-07-22T03:41:00.295Z,101448.52
2018-07-22T03:43:29.475Z,101447.66
2018-07-22T03:45:58.629Z,101448.06
2018-07-22T03:48:28.248Z,101441.75
2018-07-22T03:50:57.352Z,101446.21
2018-07-22T03:53:26.495Z,101445.35
2018-07-22T03:55:55.581Z,101448.91
2018-07-22T03:58:24.755Z,101442.16
2018-07-22T04:00:53.880Z,101444.36
2018-07-22T04:03:23.051Z,101439.94
2018-07-22T04:05:52.257Z,101440.80
2018-07-22T04:08:21.345Z,101442.64
2018-07-22T04:10:50.481Z,101442.03
2018-07-22T04:13:19.643Z,101447.08
2018-07-22T04:15:48.735Z,101449.28
2018-07-22T04:18:17.940Z,101449.69
2018-07-22T04:20:47.151Z,101451.04
2018-07-22T04:23:16.253Z,101451.50
2018-07-22T04:25:45.323Z,101453.75
2018-07-22T04:28:14.435Z,101461.38
2018-07-22T04:30:43.555Z,101459.53
2018-07-22T04:33:12.737Z,101457.69
2018-07-22T04:35:41.837Z,101453.63
2018-07-22T04:38:10.951Z,101450.92
2018-07-22T04:40:40.033Z,101442.31
2018-07-22T04:43:09.139Z,101446.37
2018-07-22T04:45:38.313Z,101448.61
2018-07-22T04:48:07.453Z,101445.91
2018-07-22T04:50:36.549Z,101445.91
2018-07-22T04:53:05.656Z,101449.48
2018-07-22T04:55:34.754Z,101449.84
2018-07-22T04:58:03.883Z,101445.79
2018-07-22T05:00:32.963Z,101448.49
2018-07-22T05:03:02.039Z,101447.14
2018-07-22T05:05:31.236Z,101452.95
2018-07-22T05:08:00.331Z,101448.41
2018-07-22T05:10:29.520Z,101455.53
2018-07-22T05:12:58.617Z,101455.17
2018-07-22T05:15:28.467Z,101455.66
2018-07-22T05:17:59.567Z,101460.09
2018-07-22T05:20:29.351Z,101461.44
2018-07-22T05:22:59.167Z,101466.36
2018-07-22T05:25:28.327Z,101461.35
2018-07-22T05:27:57.414Z,101460.95
2018-07-22T05:30:26.489Z,101461.35
2018-07-22T05:32:55.637Z,101463.66
2018-07-22T05:35:24.720Z,101468.98
2018-07-22T05:37:53.803Z,101471.19
2018-07-22T05:40:23.027Z,101466.64
2018-07-22T05:42:52.255Z,101465.78
2018-07-22T05:45:21.403Z,101462.58
2018-07-22T05:47:50.700Z,101467.91
2018-07-22T05:50:19.779Z,101466.55
2018-07-22T05:52:48.899Z,101472.83
2018-07-22T05:55:20.083Z,101477.75
2018-07-22T05:57:49.224Z,101470.52
2018-07-22T06:00:18.327Z,101476.80
2018-07-22T06:02:47.431Z,101475.94
2018-07-22T06:05:16.518Z,101478.52
2018-07-22T06:07:45.583Z,101480.36
2018-07-22T06:10:14.671Z,101478.92
2018-07-22T06:12:43.779Z,101483.34
2018-07-22T06:15:12.927Z,101482.77
2018-07-22T06:17:42.008Z,101481.57
2018-07-22T06:20:11.331Z,101483.97
2018-07-22T06:22:40.401Z,101488.80
2018-07-22T06:25:09.524Z,101485.60
2018-07-22T06:27:38.587Z,101481.82
2018-07-22T06:30:07.995Z,101482.98
2018-07-22T06:32:37.063Z,101484.22
2018-07-22T06:35:06.202Z,101486.34
2018-07-22T06:37:35.484Z,101490.68
2018-07-22T06:40:04.797Z,101488.75
2018-07-22T06:42:33.872Z,101490.87
2018-07-22T06:45:03.073Z,101485.73
2018-07-22T06:47:32.172Z,101486.73
2018-07-22T06:50:01.247Z,101488.00
2018-07-22T06:52:31.325Z,101487.41
2018-07-22T06:55:00.496Z,101494.95
2018-07-22T06:57:30.139Z,101492.39
2018-07-22T07:00:00.672Z,101498.13
2018-07-22T07:02:29.766Z,101488.91
2018-07-22T07:04:58.935Z,101498.30
2018-07-22T07:07:28.219Z,101496.73
2018-07-22T07:09:58.322Z,101501.56
2018-07-22T07:12:27.423Z,101504.95
2018-07-22T07:14:56.535Z,101500.66
2018-07-22T07:17:25.635Z,101493.76
2018-07-22T07:19:54.731Z,101493.57
2018-07-22T07:22:24.724Z,101492.86
2018-07-22T07:24:53.795Z,101498.05
2018-07-22T07:27:22.864Z,101493.30
2018-07-22T07:29:52.032Z,101493.30
2018-07-22T07:32:21.199Z,101498.86
2018-07-22T07:34:50.280Z,101493.35
2018-07-22T07:37:19.352Z,101493.12
2018-07-22T07:39:48.424Z,101494.39
2018-07-22T07:42:17.572Z,101497.36
2018-07-22T07:44:46.837Z,101487.28
2018-07-22T07:47:15.928Z,101492.70
2018-07-22T07:49:46.008Z,101489.60
2018-07-22T07:52:15.115Z,101485.53
2018-07-22T07:54:44.226Z,101491.03
2018-07-22T07:57:13.434Z,101494.37
2018-07-22T07:59:42.516Z,101493.52
2018-07-22T08:02:11.627Z,101498.08
2018-07-22T08:04:40.812Z,101494.87
2018-07-22T08:07:09.897Z,101495.14
2018-07-22T08:09:38.998Z,101496.50
2018-07-22T08:12:08.368Z,101491.08
2018-07-22T08:14:37.439Z,101492.03
2018-07-22T08:17:06.513Z,101493.52
2018-07-22T08:19:35.624Z,101495.83
2018-07-22T08:22:04.869Z,101498.08
2018-07-22T08:24:34.116Z,101499.27
2018-07-22T08:27:03.189Z,101505.86
2018-07-22T08:29:35.248Z,101502.02
2018-07-22T08:32:05.411Z,101508.43
2018-07-22T08:34:34.495Z,101509.79
2018-07-22T08:37:03.572Z,101510.38
2018-07-22T08:39:33.327Z,101516.30
2018-07-22T08:42:02.467Z,101516.88
2018-07-22T08:44:31.560Z,101514.67
2018-07-22T08:47:00.672Z,101513.31
2018-07-22T08:49:29.762Z,101518.73
2018-07-22T08:51:58.857Z,101518.23
2018-07-22T08:54:28.036Z,101522.80
2018-07-22T08:56:57.142Z,101520.19
2018-07-22T08:59:26.243Z,101516.98
2018-07-22T09:01:55.304Z,101517.47
2018-07-22T09:04:24.358Z,101516.61
2018-07-22T09:06:53.433Z,101515.13
2018-07-22T09:09:22.506Z,101514.17
2018-07-22T09:11:52.754Z,101510.70
2018-07-22T09:14:21.956Z,101512.14
2018-07-22T09:16:51.147Z,101515.26
2018-07-22T09:19:21.060Z,101515.75
2018-07-22T09:21:50.143Z,101518.83
2018-07-22T09:24:19.236Z,101521.91
2018-07-22T09:26:48.338Z,101518.55
2018-07-22T09:29:17.434Z,101526.19
2018-07-22T09:31:46.508Z,101528.53
2018-07-22T09:34:15.611Z,101528.53
2018-07-22T09:36:44.913Z,101524.07
2018-07-22T09:39:14.032Z,101527.17
2018-07-22T09:41:43.093Z,101524.07
2018-07-22T09:44:12.381Z,101521.36
2018-07-22T09:46:41.520Z,101519.55
2018-07-22T09:49:10.603Z,101522.84
2018-07-22T09:51:39.720Z,101521.85
2018-07-22T09:54:08.812Z,101519.64
2018-07-22T09:56:37.988Z,101523.70
2018-07-22T09:59:07.098Z,101517.52
2018-07-22T10:01:38.042Z,101516.06
2018-07-22T10:04:07.258Z,101513.95
2018-07-22T10:06:36.320Z,101506.31
2018-07-22T10:09:08.316Z,101508.52
2018-07-22T10:11:37.396Z,101513.08
2018-07-22T10:14:06.571Z,101513.95
2018-07-22T10:16:35.660Z,101517.61
2018-07-22T10:19:04.775Z,101523.03
2018-07-22T10:21:33.845Z,101524.87
2018-07-22T10:24:02.965Z,101519.95
2018-07-22T10:26:32.069Z,101516.75
2018-07-22T10:29:01.178Z,101514.04
2018-07-22T10:31:30.341Z,101519.09
2018-07-22T10:33:59.432Z,101513.67
2018-07-22T10:36:28.600Z,101515.13
2018-07-22T10:38:57.717Z,101509.70
2018-07-22T10:41:26.798Z,101512.69
2018-07-22T10:43:55.919Z,101511.45
2018-07-22T10:46:25.020Z,101511.05
2018-07-22T10:48:54.128Z,101510.56
2018-07-22T10:51:23.210Z,101501.57
2018-07-22T10:53:52.356Z,101508.34
2018-07-22T10:56:21.480Z,101505.54
2018-07-22T10:58:50.652Z,101508.75
2018-07-22T11:01:19.863Z,101502.92
2018-07-22T11:03:48.930Z,101503.79
2018-07-22T11:06:18.044Z,101504.28
2018-07-22T11:08:47.132Z,101507.39
2018-07-22T11:11:16.226Z,101509.61
2018-07-22T11:13:45.338Z,101501.57
2018-07-22T11:16:14.496Z,101501.57
2018-07-22T11:18:43.594Z,101501.57
2018-07-22T11:21:12.741Z,101501.97
2018-07-22T11:23:42.002Z,101500.22
2018-07-22T11:26:11.290Z,101499.36
2018-07-22T11:28:40.653Z,101505.64
2018-07-22T11:31:10.156Z,101501.97
2018-07-22T11:33:39.245Z,101508.34
2018-07-22T11:36:08.465Z,101502.56
2018-07-22T11:38:37.669Z,101502.06
2018-07-22T11:41:06.754Z,101496.65
2018-07-22T11:43:35.861Z,101498.49
2018-07-22T11:46:04.944Z,101498.09
2018-07-22T11:48:34.063Z,101497.23
2018-07-22T11:51:03.153Z,101503.14
2018-07-22T11:53:32.252Z,101502.16
2018-07-22T11:56:01.343Z,101503.92
2018-07-22T11:58:30.442Z,101491.81
2018-07-22T12:00:59.550Z,101499.36
2018-07-22T12:03:28.597Z,101495.39
2018-07-22T12:05:57.784Z,101497.14
2018-07-22T12:08:27.040Z,101505.77
2018-07-22T12:10:56.180Z,101507.48
2018-07-22T12:13:25.324Z,101501.20
2018-07-22T12:15:54.436Z,101507.98
2018-07-22T12:18:23.627Z,101511.55
2018-07-22T12:20:52.745Z,101509.83
2018-07-22T12:23:21.827Z,101506.62
2018-07-22T12:25:51.001Z,101510.29
2018-07-22T12:28:20.124Z,101511.55
2018-07-22T12:30:49.233Z,101513.67
2018-07-22T12:33:18.550Z,101512.31
2018-07-22T12:35:47.706Z,101511.33
2018-07-22T12:38:16.804Z,101511.45
2018-07-22T12:40:45.882Z,101514.16
2018-07-22T12:43:15.036Z,101517.34
2018-07-22T12:45:44.139Z,101515.52
2018-07-22T12:48:13.278Z,101518.23
2018-07-22T12:50:42.372Z,101522.30
2018-07-22T12:53:11.458Z,101525.00
2018-07-22T12:55:40.524Z,101512.81
2018-07-22T12:58:09.612Z,101523.16
2018-07-22T13:00:38.692Z,101509.11
2018-07-22T13:03:07.801Z,101519.73
2018-07-22T13:05:37.514Z,101528.04
2018-07-22T13:08:07.068Z,101527.81
2018-07-22T13:10:36.145Z,101529.45
2018-07-22T13:13:05.273Z,101527.01
2018-07-22T13:15:34.343Z,101527.87
2018-07-22T13:18:03.455Z,101525.06
2018-07-22T13:20:32.558Z,101526.33
2018-07-22T13:23:02.548Z,101524.34
2018-07-22T13:25:31.772Z,101526.38
2018-07-22T13:28:00.835Z,101532.06
2018-07-22T13:30:29.936Z,101531.56
2018-07-22T13:32:59.042Z,101532.33
2018-07-22T13:35:29.054Z,101535.05
2018-07-22T13:37:58.142Z,101535.41
2018-07-22T13:40:27.219Z,101538.89
2018-07-22T13:42:56.368Z,101536.94
2018-07-22T13:45:25.504Z,101540.78
2018-07-22T13:47:54.735Z,101544.85
2018-07-22T13:50:23.835Z,101546.70
2018-07-22T13:52:52.930Z,101544.36
2018-07-22T13:55:22.031Z,101545.72
2018-07-22T13:57:51.408Z,101541.77
2018-07-22T14:00:20.559Z,101542.54
2018-07-22T14:02:50.773Z,101545.13
2018-07-22T14:05:19.992Z,101538.34
2018-07-22T14:07:49.080Z,101544.92
2018-07-22T14:10:18.269Z,101541.75
2018-07-22T14:12:48.752Z,101547.05
2018-07-22T14:15:18.944Z,101546.36
2018-07-22T14:17:48.061Z,101549.89
2018-07-22T14:20:17.403Z,101545.34
2018-07-22T14:22:46.498Z,101551.00
2018-07-22T14:25:15.808Z,101550.50
2018-07-22T14:27:45.058Z,101552.34
2018-07-22T14:30:14.414Z,101550.50
2018-07-22T14:32:43.484Z,101551.26
2018-07-22T14:35:12.647Z,101551.03
2018-07-22T14:37:41.944Z,101548.20
2018-07-22T14:40:11.028Z,101547.28
2018-07-22T14:42:40.131Z,101554.47
2018-07-22T14:45:09.669Z,101553.88
2018-07-22T14:47:38.972Z,101545.20
2018-07-22T14:50:08.088Z,101545.31
2018-07-22T14:52:37.162Z,101543.38
2018-07-22T14:55:06.250Z,101541.12
2018-07-22T14:57:35.326Z,101541.95
2018-07-22T15:00:05.108Z,101539.80
2018-07-22T15:02:34.208Z,101543.59
2018-07-22T15:05:03.312Z,101549.41
2018-07-22T15:07:32.492Z,101535.59
2018-07-22T15:10:01.578Z,101543.00
2018-07-22T15:12:30.758Z,101546.02
2018-07-22T15:14:59.858Z,101547.86
2018-07-22T15:17:28.967Z,101542.72
2018-07-22T15:19:59.095Z,101535.95
2018-07-22T15:22:28.258Z,101546.20
2018-07-22T15:24:57.380Z,101546.91
2018-07-22T15:27:26.904Z,101548.14
2018-07-22T15:29:55.955Z,101546.23
2018-07-22T15:32:25.059Z,101556.39
2018-07-22T15:34:54.144Z,101548.38
2018-07-22T15:37:23.307Z,101548.41
2018-07-22T15:39:52.418Z,101547.05
2018-07-22T15:42:21.530Z,101548.13
2018-07-22T15:44:51.572Z,101544.65
2018-07-22T15:47:21.346Z,101538.34
2018-07-22T15:49:50.464Z,101543.70
2018-07-22T15:52:19.670Z,101539.57
2018-07-22T15:54:48.780Z,101542.09
2018-07-22T15:57:17.850Z,101537.53
2018-07-22T15:59:46.984Z,101538.09
2018-07-22T16:02:16.067Z,101538.37
2018-07-22T16:04:45.163Z,101541.27
2018-07-22T16:07:14.233Z,101536.72
2018-07-22T16:09:43.335Z,101535.02
2018-07-22T16:12:12.422Z,101543.42
2018-07-22T16:14:42.373Z,101542.22
2018-07-22T16:17:11.648Z,101535.15
2018-07-22T16:19:40.749Z,101537.42
2018-07-22T16:22:09.863Z,101528.41
2018-07-22T16:24:38.981Z,101535.95
2018-07-22T16:27:08.151Z,101532.19
2018-07-22T16:29:37.212Z,101537.23
2018-07-22T16:32:06.318Z,101540.16
2018-07-22T16:34:35.423Z,101540.24
2018-07-22T16:37:04.530Z,101534.77
2018-07-22T16:39:34.186Z,101541.62
2018-07-22T16:42:03.330Z,101531.84
2018-07-22T16:44:32.607Z,101529.72
2018-07-22T16:47:01.776Z,101532.14
2018-07-22T16:49:30.897Z,101529.64
2018-07-22T16:51:59.979Z,101529.34
2018-07-22T16:54:29.107Z,101531.58
2018-07-22T16:56:58.202Z,101526.08
2018-07-22T16:59:27.299Z,101524.25
2018-07-22T17:01:56.435Z,101531.59
2018-07-22T17:04:25.508Z,101534.20
2018-07-22T17:06:54.575Z,101526.85
2018-07-22T17:09:23.651Z,101528.66
2018-07-22T17:11:52.739Z,101535.53
2018-07-22T17:14:21.853Z,101536.27
2018-07-22T17:16:50.956Z,101541.94
2018-07-22T17:19:20.407Z,101541.09
2018-07-22T17:21:49.570Z,101536.28
2018-07-22T17:24:18.799Z,101543.03
2018-07-22T17:26:48.043Z,101544.88
2018-07-22T17:29:17.270Z,101543.53
2018-07-22T17:31:46.367Z,101537.33
2018-07-22T17:34:15.459Z,101541.37
2018-07-22T17:36:44.581Z,101535.77
2018-07-22T17:39:13.768Z,101534.64
2018-07-22T17:41:42.870Z,101534.53
2018-07-22T17:44:12.106Z,101541.85
2018-07-22T17:46:41.273Z,101537.86
2018-07-22T17:49:10.339Z,101539.77
2018-07-22T17:51:39.451Z,101539.95
2018-07-22T17:54:08.552Z,101544.20
2018-07-22T17:56:37.850Z,101543.59
2018-07-22T17:59:06.914Z,101542.51
2018-07-22T18:01:36.204Z,101546.88
2018-07-22T18:04:05.305Z,101546.70
2018-07-22T18:06:34.385Z,101552.77
2018-07-22T18:09:03.720Z,101546.76
2018-07-22T18:11:32.799Z,101548.02
2018-07-22T18:14:01.917Z,101550.02
2018-07-22T18:16:31.983Z,101551.16
2018-07-22T18:19:01.100Z,101545.37
2018-07-22T18:21:30.237Z,101553.28
2018-07-22T18:23:59.339Z,101552.97
2018-07-22T18:26:28.458Z,101553.11
2018-07-22T18:28:57.828Z,101556.31
2018-07-22T18:31:26.989Z,101554.47
2018-07-22T18:33:56.080Z,101557.58
2018-07-22T18:36:25.175Z,101558.84
2018-07-22T18:38:54.329Z,101562.02
2018-07-22T18:41:23.431Z,101563.18
2018-07-22T18:43:53.021Z,101568.11
2018-07-22T18:46:22.136Z,101564.41
2018-07-22T18:48:51.448Z,101567.89
2018-07-22T18:51:20.655Z,101573.80
2018-07-22T18:53:51.249Z,101574.17
2018-07-22T18:56:20.857Z,101574.66
2018-07-22T18:58:50.456Z,101575.43
2018-07-22T19:01:19.924Z,101581.34
2018-07-22T19:03:49.431Z,101574.84
2018-07-22T19:06:18.981Z,101580.27
2018-07-22T19:08:48.376Z,101589.63
2018-07-22T19:11:17.994Z,101588.77
2018-07-22T19:13:47.394Z,101588.77
2018-07-22T19:16:17.001Z,101588.77
2018-07-22T19:18:46.773Z,101595.05
2018-07-22T19:21:16.320Z,101588.86
2018-07-22T19:23:46.132Z,101596.89
2018-07-22T19:26:15.637Z,101596.03
2018-07-22T19:28:45.144Z,101598.16
2018-07-22T19:31:15.693Z,101607.73
2018-07-22T19:33:45.178Z,101600.38
2018-07-22T19:36:14.684Z,101602.09
2018-07-22T19:38:44.290Z,101599.47
2018-07-22T19:41:13.795Z,101596.45
2018-07-22T19:43:43.300Z,101597.54
2018-07-22T19:46:12.761Z,101598.58
2018-07-22T19:48:42.620Z,101603.23
2018-07-22T19:51:12.227Z,101607.52
2018-07-22T19:53:41.853Z,101599.83
2018-07-22T19:56:11.649Z,101611.62
2018-07-22T19:58:41.152Z,101608.64
2018-07-22T20:01:10.752Z,101609.72
2018-07-22T20:03:40.225Z,101611.20
2018-07-22T20:06:09.977Z,101614.86
2018-07-22T20:08:39.538Z,101619.42
2018-07-22T20:11:08.987Z,101624.84
2018-07-22T20:13:38.598Z,101628.62
2018-07-22T20:16:08.103Z,101628.72
2018-07-22T20:18:37.603Z,101620.99
2018-07-22T20:21:07.284Z,101624.28
2018-07-22T20:23:36.716Z,101628.84
2018-07-22T20:26:06.279Z,101623.91
2018-07-22T20:28:35.832Z,101628.94
2018-07-22T20:31:04.940Z,101633.22
2018-07-22T20:33:34.435Z,101631.36
2018-07-22T20:36:03.622Z,101629.15
2018-07-22T20:38:33.208Z,101624.22
2018-07-22T20:41:02.742Z,101625.67
2018-07-22T20:43:32.031Z,101625.30
2018-07-22T20:46:01.140Z,101638.72
2018-07-22T20:48:30.197Z,101634.66
2018-07-22T20:50:59.593Z,101639.62
2018-07-22T20:53:28.918Z,101635.37
2018-07-22T20:55:58.009Z,101637.49
2018-07-22T20:58:27.631Z,101634.02
2018-07-22T21:00:56.995Z,101646.70
2018-07-22T21:03:26.079Z,101646.70
2018-07-22T21:05:55.155Z,101646.30
2018-07-22T21:08:24.320Z,101649.41
2018-07-22T21:10:53.426Z,101649.50
2018-07-22T21:13:25.840Z,101647.65
2018-07-22T21:15:55.390Z,101645.71
2018-07-22T21:18:24.651Z,101648.70
2018-07-22T21:20:53.819Z,101642.33
2018-07-22T21:23:23.111Z,101652.55
2018-07-22T21:25:52.176Z,101653.33
2018-07-22T21:28:21.287Z,101654.95
2018-07-22T21:30:50.392Z,101653.60
2018-07-22T21:33:20.186Z,101652.16
2018-07-22T21:35:49.801Z,101651.57
2018-07-22T21:38:18.906Z,101648.73
2018-07-22T21:40:48.094Z,101651.36
2018-07-22T21:43:17.199Z,101653.48
2018-07-22T21:45:46.291Z,101650.77
2018-07-22T21:48:15.527Z,101646.43
2018-07-22T21:50:44.698Z,101650.59
2018-07-22T21:53:13.888Z,101651.17
2018-07-22T21:55:43.067Z,101652.65
2018-07-22T21:58:12.372Z,101653.11
2018-07-22T22:00:44.360Z,101663.00
2018-07-22T22:03:13.539Z,101661.36
2018-07-22T22:05:42.881Z,101661.95
2018-07-22T22:08:11.938Z,101665.36
2018-07-22T22:10:41.016Z,101662.16
2018-07-22T22:13:10.739Z,101660.52
2018-07-22T22:15:39.845Z,101667.39
2018-07-22T22:18:08.919Z,101665.17
2018-07-22T22:20:38.023Z,101663.91
2018-07-22T22:23:07.417Z,101665.75
2018-07-22T22:25:36.538Z,101665.27
2018-07-22T22:28:05.735Z,101664.03
2018-07-22T22:30:34.915Z,101665.47
2018-07-22T22:33:04.005Z,101665.47
2018-07-22T22:35:33.109Z,101665.56
2018-07-22T22:38:02.181Z,101663.34
2018-07-22T22:40:31.300Z,101666.17
2018-07-22T22:43:00.408Z,101663.47
2018-07-22T22:45:29.485Z,101663.92
2018-07-22T22:47:58.632Z,101664.91
2018-07-22T22:50:27.718Z,101670.83
2018-07-22T22:52:56.873Z,101669.56
2018-07-22T22:55:25.978Z,101670.14
2018-07-22T22:58:06.458Z,101669.19
2018-07-22T23:00:35.638Z,101668.33
2018-07-22T23:03:04.832Z,101667.43
2018-07-22T23:05:33.904Z,101664.27
2018-07-22T23:08:02.975Z,101669.68
2018-07-22T23:10:32.050Z,101667.52
2018-07-22T23:13:01.141Z,101667.11
2018-07-22T23:15:30.273Z,101669.36
2018-07-22T23:17:59.333Z,101665.02
2018-07-22T23:20:31.490Z,101667.52
2018-07-22T23:23:00.571Z,101666.83
2018-07-22T23:25:29.658Z,101672.25
2018-07-22T23:27:58.727Z,101673.14
2018-07-22T23:30:27.823Z,101676.23
2018-07-22T23:32:57.659Z,101675.45
2018-07-22T23:35:26.752Z,101674.67
2018-07-22T23:37:55.826Z,101673.32
2018-07-22T23:40:24.891Z,101670.61
2018-07-22T23:42:53.976Z,101674.67
2018-07-22T23:45:23.067Z,101675.16
2018-07-22T23:47:55.175Z,101678.37
2018-07-22T23:50:24.342Z,101677.50
2018-07-22T23:52:53.583Z,101677.38
2018-07-22T23:55:23.541Z,101673.44
2018-07-22T23:57:52.663Z,101671.69
